Time,TemperatureF,DewpointF,PressureIn,WindDirection,WindDirectionDegrees,WindSpeedMPH,WindSpeedGustMPH,Humidity,HourlyPrecipIn,Conditions,Clouds,dailyrainin,SoftwareType,DateUTC
2013-08-05 00:14:00,57.0,55.3,29.94,ESE,112,1.7,-999.0,94,-99.99,,,0.00,Acu-Link.com,2013-08-05 07:14:00,
2013-08-05 00:29:00,56.8,55.1,29.96,NNE,22,1.7,-999.0,94,-99.99,,,0.00,Acu-Link.com,2013-08-05 07:29:00,
2013-08-05 00:44:00,56.8,55.1,29.95,NNE,22,1.1,-999.0,94,-99.99,,,0.00,Acu-Link.com,2013-08-05 07:44:00,
2013-08-05 00:59:00,56.5,54.8,29.94,SSW,202,0.0,-999.0,94,-99.99,,,0.00,Acu-Link.com,2013-08-05 07:59:00,
2013-08-05 01:15:00,56.5,55.1,29.94,SE,135,0.0,-999.0,95,-99.99,,,0.00,Acu-Link.com,2013-08-05 08:15:00,
2013-08-05 01:30:00,56.3,54.9,29.96,WNW,292,2.7,-999.0,95,-99.99,,,0.00,Acu-Link.com,2013-08-05 08:30:00,
2013-08-05 01:45:00,56.3,54.9,29.94,West,270,0.0,-999.0,95,-99.99,,,0.00,Acu-Link.com,2013-08-05 08:45:00,
2013-08-05 02:00:00,56.3,54.9,29.94,West,270,1.1,-999.0,95,-99.99,,,0.00,Acu-Link.com,2013-08-05 09:00:00,
2013-08-05 02:46:00,55.9,54.8,29.93,SE,135,0.0,-999.0,96,-99.99,,,0.00,Acu-Link.com,2013-08-05 09:46:00,
2013-08-05 03:17:00,55.9,55.3,29.93,ENE,67,0.0,-999.0,98,-99.99,,,0.00,Acu-Link.com,2013-08-05 10:17:00,
2013-08-05 03:31:00,55.8,55.2,29.93,NNW,337,0.0,-999.0,98,-99.99,,,0.00,Acu-Link.com,2013-08-05 10:31:00,
2013-08-05 03:47:00,55.6,55.0,29.94,WNW,292,2.2,-999.0,98,-99.99,,,0.00,Acu-Link.com,2013-08-05 10:47:00,
2013-08-05 04:02:00,55.6,55.0,29.93,NE,45,0.0,-999.0,98,-99.99,,,0.00,Acu-Link.com,2013-08-05 11:02:00,
2013-08-05 04:18:00,55.4,54.8,29.93,SW,225,2.2,-999.0,98,-99.99,,,0.00,Acu-Link.com,2013-08-05 11:18:00,
2013-08-05 04:33:00,55.2,54.6,29.93,NNE,22,1.1,-999.0,98,-99.99,,,0.00,Acu-Link.com,2013-08-05 11:33:00,
2013-08-05 04:48:00,55.2,54.6,29.93,SSW,202,0.0,-999.0,98,-99.99,,,0.00,Acu-Link.com,2013-08-05 11:48:00,
2013-08-05 05:03:00,55.0,54.4,29.92,West,270,2.2,-999.0,98,-99.99,,,0.00,Acu-Link.com,2013-08-05 12:03:00,
2013-08-05 05:19:00,54.7,54.1,29.93,NNE,22,2.7,-999.0,98,-99.99,,,0.00,Acu-Link.com,2013-08-05 12:19:00,
2013-08-05 05:34:00,54.5,53.9,29.93,West,270,2.7,-999.0,98,-99.99,,,0.00,Acu-Link.com,2013-08-05 12:34:00,
2013-08-05 05:49:00,54.5,53.9,29.94,North,0,1.1,-999.0,98,-99.99,,,0.00,Acu-Link.com,2013-08-05 12:49:00,
2013-08-05 06:05:00,54.5,53.9,29.94,NW,315,2.7,-999.0,98,-99.99,,,0.00,Acu-Link.com,2013-08-05 13:05:00,
2013-08-05 06:20:00,54.5,53.9,29.94,WNW,292,0.0,-999.0,98,-99.99,,,0.00,Acu-Link.com,2013-08-05 13:20:00,
2013-08-05 06:35:00,54.3,53.7,29.94,NNE,22,2.7,-999.0,98,-99.99,,,0.00,Acu-Link.com,2013-08-05 13:35:00,
2013-08-05 06:50:00,54.3,53.7,29.94,WNW,292,0.0,-999.0,98,-99.99,,,0.00,Acu-Link.com,2013-08-05 13:50:00,
2013-08-05 07:05:00,54.5,53.9,29.94,NNW,337,2.2,-999.0,98,-99.99,,,0.00,Acu-Link.com,2013-08-05 14:05:00,
2013-08-05 07:21:00,54.5,53.9,29.95,West,270,1.7,-999.0,98,-99.99,,,0.00,Acu-Link.com,2013-08-05 14:21:00,
2013-08-05 07:51:00,54.7,54.1,29.95,West,270,3.2,-999.0,98,-99.99,,,0.00,Acu-Link.com,2013-08-05 14:51:00,
2013-08-05 08:22:00,55.2,54.6,29.95,West,270,2.2,-999.0,98,-99.99,,,0.00,Acu-Link.com,2013-08-05 15:22:00,
2013-08-05 08:53:00,56.1,54.4,29.94,North,0,0.0,-999.0,94,-99.99,,,0.00,Acu-Link.com,2013-08-05 15:53:00,
2013-08-05 09:07:00,56.8,54.5,29.95,SSW,202,2.2,-999.0,92,-99.99,,,0.00,Acu-Link.com,2013-08-05 16:07:00,
2013-08-05 09:38:00,58.3,55.4,29.96,West,270,1.7,-999.0,90,-99.99,,,0.00,Acu-Link.com,2013-08-05 16:38:00,
2013-08-05 09:53:00,59.4,55.8,29.95,NNE,22,1.7,-999.0,88,-99.99,,,0.00,Acu-Link.com,2013-08-05 16:53:00,
2013-08-05 10:09:00,60.3,56.1,29.96,SSW,202,3.2,-999.0,86,-99.99,,,0.00,Acu-Link.com,2013-08-05 17:09:00,
2013-08-05 10:24:00,59.2,56.0,29.95,WNW,292,2.2,-999.0,89,-99.99,,,0.00,Acu-Link.com,2013-08-05 17:24:00,
2013-08-05 11:10:00,61.7,57.1,29.95,SW,225,1.7,-999.0,85,-99.99,,,0.00,Acu-Link.com,2013-08-05 18:10:00,
2013-08-05 11:25:00,64.2,57.9,29.96,SE,135,3.2,-999.0,80,-99.99,,,0.00,Acu-Link.com,2013-08-05 18:25:00,
2013-08-05 11:41:00,65.7,58.6,29.95,SSW,202,5.3,-999.0,78,-99.99,,,0.00,Acu-Link.com,2013-08-05 18:41:00,
2013-08-05 11:56:00,67.6,59.4,29.94,WSW,247,3.2,-999.0,75,-99.99,,,0.00,Acu-Link.com,2013-08-05 18:56:00,
2013-08-05 12:11:00,70.0,60.2,29.94,SE,135,2.7,-999.0,71,-99.99,,,0.00,Acu-Link.com,2013-08-05 19:11:00,
2013-08-05 12:41:00,69.3,60.3,29.92,NNW,337,2.7,-999.0,73,-99.99,,,0.00,Acu-Link.com,2013-08-05 19:41:00,
2013-08-05 12:57:00,69.3,59.9,29.92,SW,225,2.7,-999.0,72,-99.99,,,0.00,Acu-Link.com,2013-08-05 19:57:00,
2013-08-05 13:12:00,69.1,59.7,29.92,SSW,202,6.3,-999.0,72,-99.99,,,0.00,Acu-Link.com,2013-08-05 20:12:00,
2013-08-05 13:27:00,70.2,59.5,29.91,West,270,5.3,-999.0,69,-99.99,,,0.00,Acu-Link.com,2013-08-05 20:27:00,
2013-08-05 13:57:00,73.4,61.3,29.91,West,270,2.2,-999.0,66,-99.99,,,0.00,Acu-Link.com,2013-08-05 20:57:00,
2013-08-05 14:28:00,72.1,59.7,29.89,SW,225,2.7,-999.0,65,-99.99,,,0.00,Acu-Link.com,2013-08-05 21:28:00,
2013-08-05 14:58:00,75.6,61.2,29.89,ENE,67,4.2,-999.0,61,-99.99,,,0.00,Acu-Link.com,2013-08-05 21:58:00,
2013-08-05 15:14:00,74.7,60.8,29.90,North,0,5.3,-999.0,62,-99.99,,,0.00,Acu-Link.com,2013-08-05 22:14:00,
2013-08-05 15:29:00,73.9,60.5,29.87,West,270,3.7,-999.0,63,-99.99,,,0.00,Acu-Link.com,2013-08-05 22:29:00,
2013-08-05 15:44:00,73.6,59.8,29.88,NNW,337,6.3,-999.0,62,-99.99,,,0.00,Acu-Link.com,2013-08-05 22:44:00,
2013-08-05 16:00:00,73.4,60.0,29.88,SW,225,2.2,-999.0,63,-99.99,,,0.00,Acu-Link.com,2013-08-05 23:00:00,
2013-08-05 16:15:00,72.5,59.2,29.88,SSE,157,2.7,-999.0,63,-99.99,,,0.00,Acu-Link.com,2013-08-05 23:15:00,
2013-08-05 16:30:00,70.2,58.7,29.88,WSW,247,4.7,-999.0,67,-99.99,,,0.00,Acu-Link.com,2013-08-05 23:30:00,
2013-08-05 16:45:00,72.3,59.4,29.86,NW,315,3.7,-999.0,64,-99.99,,,0.00,Acu-Link.com,2013-08-05 23:45:00,
2013-08-05 17:16:00,71.1,58.7,29.86,West,270,2.2,-999.0,65,-99.99,,,0.00,Acu-Link.com,2013-08-06 00:16:00,
2013-08-05 18:02:00,70.3,58.0,29.86,WNW,292,6.3,-999.0,65,-99.99,,,0.00,Acu-Link.com,2013-08-06 01:02:00,
2013-08-05 18:17:00,71.2,57.9,29.85,WNW,292,4.2,-999.0,63,-99.99,,,0.00,Acu-Link.com,2013-08-06 01:17:00,
2013-08-05 18:32:00,69.4,57.5,29.86,NE,45,1.7,-999.0,66,-99.99,,,0.00,Acu-Link.com,2013-08-06 01:32:00,
2013-08-05 18:47:00,68.5,57.1,29.87,SW,225,2.7,-999.0,67,-99.99,,,0.00,Acu-Link.com,2013-08-06 01:47:00,
2013-08-05 19:33:00,65.7,55.6,29.87,West,270,4.7,-999.0,70,-99.99,,,0.00,Acu-Link.com,2013-08-06 02:33:00,
2013-08-05 19:48:00,63.1,54.7,29.88,WSW,247,3.2,-999.0,74,-99.99,,,0.00,Acu-Link.com,2013-08-06 02:48:00,
2013-08-05 20:04:00,62.4,54.7,29.88,WSW,247,4.2,-999.0,76,-99.99,,,0.00,Acu-Link.com,2013-08-06 03:04:00,
2013-08-05 20:19:00,59.9,53.7,29.89,WSW,247,1.7,-999.0,80,-99.99,,,0.00,Acu-Link.com,2013-08-06 03:19:00,
2013-08-05 20:50:00,56.5,52.4,29.90,West,270,3.2,-999.0,86,-99.99,,,0.00,Acu-Link.com,2013-08-06 03:50:00,
2013-08-05 21:05:00,55.9,52.1,29.90,WNW,292,0.0,-999.0,87,-99.99,,,0.00,Acu-Link.com,2013-08-06 04:05:00,
2013-08-05 21:20:00,55.0,51.8,29.90,West,270,1.7,-999.0,89,-99.99,,,0.00,Acu-Link.com,2013-08-06 04:20:00,
2013-08-05 21:36:00,54.3,51.4,29.90,West,270,1.7,-999.0,90,-99.99,,,0.00,Acu-Link.com,2013-08-06 04:36:00,
2013-08-05 21:51:00,53.6,51.3,29.90,ESE,112,1.7,-999.0,92,-99.99,,,0.00,Acu-Link.com,2013-08-06 04:51:00,
2013-08-05 22:06:00,53.6,51.6,29.92,WNW,292,1.1,-999.0,93,-99.99,,,0.00,Acu-Link.com,2013-08-06 05:06:00,
2013-08-05 22:21:00,53.8,51.8,29.91,WSW,247,1.7,-999.0,93,-99.99,,,0.00,Acu-Link.com,2013-08-06 05:21:00,
2013-08-05 22:37:00,54.0,52.0,29.91,West,270,2.2,-999.0,93,-99.99,,,0.00,Acu-Link.com,2013-08-06 05:37:00,
2013-08-05 22:52:00,54.0,52.0,29.91,NE,45,3.2,-999.0,93,-99.99,,,0.00,Acu-Link.com,2013-08-06 05:52:00,
2013-08-05 23:07:00,54.0,52.0,29.91,NE,45,1.7,-999.0,93,-99.99,,,0.00,Acu-Link.com,2013-08-06 06:07:00,
2013-08-05 23:23:00,54.0,52.0,29.91,SE,135,0.0,-999.0,93,-99.99,,,0.00,Acu-Link.com,2013-08-06 06:23:00,
2013-08-05 23:38:00,54.0,52.0,29.91,WNW,292,0.0,-999.0,93,-99.99,,,0.00,Acu-Link.com,2013-08-06 06:38:00,
2013-08-05 23:53:00,53.8,51.8,29.93,WSW,247,0.0,-999.0,93,-99.99,,,0.00,Acu-Link.com,2013-08-06 06:53:00,